createdAt,value
2018-06-17T00:02:13.949Z,16.10
2018-06-17T00:04:42.871Z,16.10
2018-06-17T00:07:12.338Z,16.10
2018-06-17T00:09:42.832Z,16.10
2018-06-17T00:12:12.416Z,16.00
2018-06-17T00:14:42.498Z,16.00
2018-06-17T00:17:11.152Z,16.00
2018-06-17T00:19:43.752Z,16.00
2018-06-17T00:22:13.693Z,16.00
2018-06-17T00:24:44.176Z,15.90
2018-06-17T00:27:12.933Z,15.90
2018-06-17T00:29:43.648Z,15.90
2018-06-17T00:32:17.312Z,15.90
2018-06-17T00:34:47.869Z,15.80
2018-06-17T00:37:17.309Z,15.80
2018-06-17T00:39:49.850Z,15.80
2018-06-17T00:42:18.717Z,15.70
2018-06-17T00:44:49.596Z,15.70
2018-06-17T00:47:18.393Z,15.70
2018-06-17T00:49:47.220Z,15.60
2018-06-17T00:52:15.892Z,15.60
2018-06-17T00:54:45.876Z,15.60
2018-06-17T00:57:29.540Z,15.50
2018-06-17T01:00:00.411Z,15.50
2018-06-17T01:02:30.362Z,15.50
2018-06-17T01:05:05.070Z,15.40
2018-06-17T01:13:19.310Z,15.30
2018-06-17T01:15:50.108Z,15.30
2018-06-17T01:18:18.916Z,15.30
2018-06-17T01:20:51.386Z,15.20
2018-06-17T01:23:20.297Z,15.20
2018-06-17T01:25:56.711Z,15.10
2018-06-17T01:28:28.840Z,15.10
2018-06-17T01:30:57.939Z,15.10
2018-06-17T01:33:26.788Z,15.10
2018-06-17T01:35:56.820Z,15.00
2018-06-17T01:38:26.444Z,15.00
2018-06-17T01:41:02.172Z,15.00
2018-06-17T01:43:45.301Z,14.90
2018-06-17T01:46:15.623Z,15.00
2018-06-17T01:48:49.462Z,14.90
2018-06-17T01:51:19.723Z,14.90
2018-06-17T01:53:49.252Z,14.80
2018-06-17T01:56:19.629Z,14.80
2018-06-17T01:58:54.965Z,14.80
2018-06-17T02:18:34.961Z,14.50
2018-06-17T02:21:03.857Z,14.50
2018-06-17T02:23:44.802Z,14.50
2018-06-17T02:26:15.523Z,14.40
2018-06-17T02:31:26.249Z,14.30
2018-06-17T02:33:56.131Z,14.30
2018-06-17T02:38:59.504Z,14.30
2018-06-17T02:42:00.073Z,14.20
2018-06-17T02:44:30.436Z,14.20
2018-06-17T02:47:12.854Z,14.20
2018-06-17T02:49:52.743Z,14.20
2018-06-17T02:52:29.793Z,14.10
2018-06-17T02:55:00.278Z,14.10
2018-06-17T02:57:33.660Z,14.10
2018-06-17T03:00:06.979Z,14.10
2018-06-17T03:02:53.259Z,14.10
2018-06-17T03:05:29.376Z,14.00
2018-06-17T03:08:11.361Z,14.00
2018-06-17T03:10:56.266Z,14.00
2018-06-17T03:13:27.105Z,14.00
2018-06-17T03:18:33.000Z,14.00
2018-06-17T03:21:07.079Z,13.90
2018-06-17T03:23:44.135Z,13.90
2018-06-17T03:26:20.611Z,13.90
2018-06-17T03:28:58.146Z,13.90
2018-06-17T03:31:32.885Z,13.90
2018-06-17T03:34:01.805Z,13.90
2018-06-17T03:36:31.947Z,13.90
2018-06-17T03:39:06.041Z,14.00
2018-06-17T03:41:43.584Z,14.00
2018-06-17T03:44:12.862Z,14.00
2018-06-17T03:46:42.569Z,14.00
2018-06-17T03:49:11.835Z,14.00
2018-06-17T03:51:43.127Z,14.00
2018-06-17T03:54:12.017Z,14.00
2018-06-17T03:56:48.773Z,14.00
2018-06-17T03:59:17.636Z,14.00
2018-06-17T04:01:46.625Z,14.00
2018-06-17T04:04:18.436Z,14.00
2018-06-17T04:23:51.538Z,14.10
2018-06-17T04:26:20.340Z,14.20
2018-06-17T04:28:50.179Z,14.20
2018-06-17T04:31:19.124Z,14.30
2018-06-17T04:33:47.973Z,14.30
2018-06-17T04:36:16.745Z,14.30
2018-06-17T04:38:46.082Z,14.30
2018-06-17T04:41:14.965Z,14.40
2018-06-17T04:46:13.284Z,14.40
2018-06-17T04:48:42.274Z,14.40
2018-06-17T04:51:10.996Z,14.40
2018-06-17T04:53:44.481Z,14.40
2018-06-17T04:56:13.248Z,14.50
2018-06-17T04:58:42.875Z,14.50
2018-06-17T05:01:12.595Z,14.60
2018-06-17T05:03:42.254Z,14.60
2018-06-17T05:06:11.536Z,14.70
2018-06-17T05:08:40.795Z,14.80
2018-06-17T05:11:09.481Z,14.90
2018-06-17T05:13:39.181Z,15.00
2018-06-17T05:16:07.932Z,15.00
2018-06-17T05:18:36.609Z,15.10
2018-06-17T05:21:05.276Z,15.20
2018-06-17T05:23:34.091Z,15.30
2018-06-17T05:26:03.226Z,15.30
2018-06-17T05:28:31.852Z,15.40
2018-06-17T05:31:00.429Z,15.40
2018-06-17T05:33:29.528Z,15.50
2018-06-17T05:35:58.348Z,15.50
2018-06-17T05:38:26.896Z,15.50
2018-06-17T05:40:55.714Z,15.60
2018-06-17T05:43:24.242Z,15.60
2018-06-17T05:45:52.934Z,15.60
2018-06-17T05:48:21.444Z,15.60
2018-06-17T05:50:49.948Z,15.60
2018-06-17T05:53:18.491Z,15.70
2018-06-17T05:55:47.171Z,15.70
2018-06-17T05:58:15.627Z,15.70
2018-06-17T06:00:44.218Z,15.80
2018-06-17T06:03:13.391Z,15.80
2018-06-17T06:05:42.839Z,15.80
2018-06-17T06:08:11.501Z,15.90
2018-06-17T06:10:40.245Z,16.00
2018-06-17T06:13:08.788Z,16.10
2018-06-17T06:15:37.361Z,16.20
2018-06-17T06:18:06.215Z,16.30
2018-06-17T06:20:34.832Z,16.40
2018-06-17T06:23:03.552Z,16.50
2018-06-17T06:25:32.171Z,16.50
2018-06-17T06:28:02.801Z,16.60
2018-06-17T06:30:31.524Z,16.60
2018-06-17T06:33:00.099Z,16.70
2018-06-17T06:35:29.417Z,16.70
2018-06-17T06:37:58.304Z,16.70
2018-06-17T06:40:27.696Z,16.80
2018-06-17T06:43:02.981Z,16.90
2018-06-17T06:45:31.792Z,16.90
2018-06-17T06:48:01.517Z,17.00
2018-06-17T06:53:04.664Z,17.10
2018-06-17T06:55:37.435Z,17.10
2018-06-17T06:58:07.671Z,17.10
2018-06-17T07:00:37.432Z,17.20
2018-06-17T07:03:18.135Z,17.30
2018-06-17T07:05:57.757Z,17.30
2018-06-17T07:08:37.896Z,17.40
2018-06-17T07:11:07.162Z,17.50
2018-06-17T07:13:37.435Z,17.60
2018-06-17T07:16:17.149Z,17.60
2018-06-17T07:18:46.307Z,17.60
2018-06-17T07:21:15.768Z,17.60
2018-06-17T07:23:44.647Z,17.70
2018-06-17T07:26:26.731Z,17.80
2018-06-17T07:29:06.983Z,17.80
2018-06-17T07:31:35.779Z,17.90
2018-06-17T07:34:04.977Z,18.00
2018-06-17T07:36:34.612Z,18.10
2018-06-17T07:40:15.652Z,18.20
2018-06-17T07:42:47.212Z,18.30
2018-06-17T07:45:16.437Z,18.40
2018-06-17T08:08:04.901Z,18.60
2018-06-17T08:10:33.607Z,18.60
2018-06-17T08:13:02.383Z,18.70
2018-06-17T08:15:31.627Z,18.80
2018-06-17T08:18:03.598Z,18.90
2018-06-17T08:20:32.415Z,19.00
2018-06-17T08:23:01.864Z,19.20
2018-06-17T08:25:32.299Z,19.40
2018-06-17T08:28:00.970Z,19.50
2018-06-17T08:30:56.553Z,19.60
2018-06-17T08:33:25.421Z,19.60
2018-06-17T08:35:58.779Z,19.70
2018-06-17T08:38:28.949Z,19.70
2018-06-17T08:40:57.781Z,19.70
2018-06-17T08:43:26.643Z,19.70
2018-06-17T08:45:57.042Z,19.60
2018-06-17T08:48:29.030Z,19.60
2018-06-17T08:50:57.726Z,19.70
2018-06-17T08:53:33.810Z,19.70
2018-06-17T08:56:08.651Z,19.70
2018-06-17T08:58:50.567Z,19.80
2018-06-17T09:01:20.219Z,20.00
2018-06-17T09:03:51.730Z,20.00
2018-06-17T09:06:20.777Z,20.10
2018-06-17T09:08:50.554Z,20.00
2018-06-17T09:13:51.073Z,20.00
2018-06-17T09:16:21.219Z,20.00
2018-06-17T09:18:50.211Z,20.00
2018-06-17T09:21:19.456Z,20.00
2018-06-17T09:23:48.506Z,20.00
2018-06-17T09:26:31.132Z,20.00
2018-06-17T09:29:06.658Z,20.00
2018-06-17T09:31:35.340Z,20.10
2018-06-17T09:34:04.392Z,20.10
2018-06-17T09:36:33.321Z,20.10
2018-06-17T09:39:01.979Z,20.20
2018-06-17T09:41:30.962Z,20.20
2018-06-17T09:44:00.849Z,20.30
2018-06-17T09:46:30.357Z,20.30
2018-06-17T09:48:59.155Z,20.30
2018-06-17T09:51:29.735Z,20.40
2018-06-17T09:53:59.608Z,20.40
2018-06-17T09:56:28.289Z,20.40
2018-06-17T09:58:57.397Z,20.30
2018-06-17T10:01:26.239Z,20.30
2018-06-17T10:03:56.413Z,20.40
2018-06-17T10:06:29.577Z,20.40
2018-06-17T10:09:01.107Z,20.40
2018-06-17T10:11:42.956Z,20.30
2018-06-17T10:14:11.919Z,20.20
2018-06-17T10:16:42.538Z,20.20
2018-06-17T10:19:12.486Z,20.20
2018-06-17T10:21:41.574Z,20.10
2018-06-17T10:24:10.244Z,20.20
2018-06-17T10:26:38.968Z,20.20
2018-06-17T10:29:07.722Z,20.30
2018-06-17T10:31:38.607Z,20.40
2018-06-17T10:34:07.355Z,20.50
2018-06-17T10:36:36.358Z,20.60
2018-06-17T10:39:07.612Z,20.70
2018-06-17T10:41:36.431Z,20.90
2018-06-17T10:44:05.399Z,20.90
2018-06-17T10:46:34.414Z,21.10
2018-06-17T10:49:07.031Z,21.20
2018-06-17T10:51:39.844Z,21.30
2018-06-17T10:54:08.525Z,21.40
2018-06-17T10:56:37.254Z,21.40
2018-06-17T10:59:05.800Z,21.40
2018-06-17T11:01:34.353Z,21.40
2018-06-17T11:04:06.851Z,21.40
2018-06-17T11:06:35.706Z,21.50
2018-06-17T11:09:06.391Z,21.60
2018-06-17T11:11:36.599Z,21.70
2018-06-17T11:14:05.283Z,21.90
2018-06-17T11:16:33.821Z,22.10
2018-06-17T11:19:03.835Z,22.30
2018-06-17T11:21:33.281Z,22.20
2018-06-17T11:26:31.214Z,22.20
2018-06-17T11:29:00.286Z,22.30
2018-06-17T11:31:31.265Z,22.30
2018-06-17T11:34:00.133Z,22.20
2018-06-17T11:36:29.027Z,22.30
2018-06-17T11:38:57.868Z,22.30
2018-06-17T11:41:27.062Z,22.20
2018-06-17T11:43:55.901Z,22.10
2018-06-17T11:46:25.734Z,22.10
2018-06-17T11:48:54.420Z,22.10
2018-06-17T11:51:22.960Z,22.20
2018-06-17T11:54:03.596Z,22.30
2018-06-17T11:56:32.468Z,22.30
2018-06-17T12:16:06.313Z,22.00
2018-06-17T12:18:35.124Z,21.80
2018-06-17T12:21:03.788Z,21.80
2018-06-17T12:23:32.482Z,21.80
2018-06-17T12:26:01.637Z,21.70
2018-06-17T12:28:34.322Z,21.70
2018-06-17T12:31:03.101Z,21.60
2018-06-17T12:33:31.949Z,21.60
2018-06-17T12:36:00.638Z,21.60
2018-06-17T12:38:29.385Z,21.60
2018-06-17T12:40:57.920Z,21.80
2018-06-17T12:43:26.769Z,21.80
2018-06-17T12:45:56.488Z,21.90
2018-06-17T12:48:25.232Z,22.00
2018-06-17T12:50:55.607Z,22.20
2018-06-17T12:53:25.344Z,22.20
2018-06-17T12:55:54.636Z,22.10
2018-06-17T12:58:25.483Z,22.00
2018-06-17T13:00:59.950Z,21.90
2018-06-17T13:03:28.780Z,21.80
2018-06-17T13:05:58.604Z,21.80
2018-06-17T13:08:27.985Z,21.80
2018-06-17T13:10:57.987Z,21.80
2018-06-17T13:13:26.857Z,21.80
2018-06-17T13:15:57.316Z,21.70
2018-06-17T13:18:25.937Z,21.80
2018-06-17T13:20:55.255Z,21.70
2018-06-17T13:23:24.727Z,21.70
2018-06-17T13:25:56.303Z,21.60
2018-06-17T13:28:25.013Z,21.40
2018-06-17T13:30:53.619Z,21.30
2018-06-17T13:33:22.275Z,21.10
2018-06-17T13:35:50.975Z,21.00
2018-06-17T13:38:20.457Z,21.00
2018-06-17T13:40:50.133Z,20.90
2018-06-17T13:43:18.924Z,21.00
2018-06-17T13:45:54.273Z,21.00
2018-06-17T13:48:22.999Z,21.00
2018-06-17T13:50:51.636Z,21.00
2018-06-17T13:53:20.239Z,21.00
2018-06-17T13:55:48.945Z,21.00
2018-06-17T13:58:17.976Z,21.10
2018-06-17T14:00:46.562Z,21.20
2018-06-17T14:03:15.694Z,21.40
2018-06-17T14:05:44.982Z,21.60
2018-06-17T14:08:14.807Z,21.70
2018-06-17T14:10:43.484Z,21.90
2018-06-17T14:13:12.974Z,21.90
2018-06-17T14:15:41.777Z,21.70
2018-06-17T14:18:10.767Z,21.70
2018-06-17T14:20:43.037Z,21.60
2018-06-17T14:23:17.856Z,21.60
2018-06-17T14:28:14.962Z,21.50
2018-06-17T14:30:44.352Z,21.50
2018-06-17T14:33:12.985Z,21.60
2018-06-17T14:35:41.656Z,21.50
2018-06-17T14:38:11.344Z,21.40
2018-06-17T14:40:46.720Z,21.30
2018-06-17T14:43:20.708Z,21.30
2018-06-17T14:45:55.173Z,21.20
2018-06-17T14:48:29.000Z,21.00
2018-06-17T14:51:03.596Z,21.00
2018-06-17T14:53:35.283Z,20.70
2018-06-17T14:56:10.117Z,20.60
2018-06-17T14:58:38.800Z,20.50
2018-06-17T15:01:09.897Z,20.50
2018-06-17T15:03:39.055Z,20.40
2018-06-17T15:08:37.211Z,20.50
2018-06-17T15:11:06.097Z,20.50
2018-06-17T15:13:34.692Z,20.50
2018-06-17T15:16:03.352Z,20.60
2018-06-17T15:18:32.075Z,20.60
2018-06-17T15:33:21.511Z,20.60
2018-06-17T15:35:55.860Z,20.60
2018-06-17T15:38:30.542Z,20.60
2018-06-17T15:41:05.537Z,20.50
2018-06-17T15:43:34.424Z,20.50
2018-06-17T15:46:07.342Z,20.50
2018-06-17T15:48:36.804Z,20.50
2018-06-17T15:51:06.677Z,20.40
2018-06-17T15:53:42.293Z,20.30
2018-06-17T15:56:15.919Z,20.30
2018-06-17T15:58:46.430Z,20.20
2018-06-17T16:01:15.816Z,20.30
2018-06-17T16:03:53.460Z,20.20
2018-06-17T16:06:29.627Z,20.10
2018-06-17T16:08:58.443Z,20.00
2018-06-17T16:11:29.120Z,20.00
2018-06-17T16:14:03.505Z,20.10
2018-06-17T16:16:40.881Z,20.10
2018-06-17T16:19:15.067Z,20.20
2018-06-17T16:21:49.020Z,20.30
2018-06-17T16:24:24.965Z,20.30
2018-06-17T16:26:54.236Z,20.40
2018-06-17T16:29:22.894Z,20.50
2018-06-17T16:31:53.244Z,20.50
2018-06-17T16:34:21.919Z,20.60
2018-06-17T16:36:50.704Z,20.70
2018-06-17T16:39:19.412Z,20.80
2018-06-17T16:41:49.833Z,20.90
2018-06-17T16:44:19.373Z,21.10
2018-06-17T16:46:48.815Z,21.20
2018-06-17T16:49:17.380Z,21.50
2018-06-17T16:51:52.728Z,21.80
2018-06-17T16:54:26.824Z,21.90
2018-06-17T16:57:00.703Z,21.90
2018-06-17T16:59:34.692Z,21.90
2018-06-17T17:02:03.649Z,22.00
2018-06-17T17:04:33.370Z,21.90
2018-06-17T17:07:02.912Z,21.70
2018-06-17T17:09:32.021Z,21.50
2018-06-17T17:12:01.797Z,21.50
2018-06-17T17:14:30.485Z,21.40
2018-06-17T17:16:59.326Z,21.30
2018-06-17T17:19:28.065Z,21.20
2018-06-17T17:22:02.076Z,21.20
2018-06-17T17:24:30.887Z,21.30
2018-06-17T17:27:00.501Z,21.30
2018-06-17T17:29:29.936Z,21.20
2018-06-17T17:32:03.972Z,21.20
2018-06-17T17:37:21.843Z,21.00
2018-06-17T17:39:56.403Z,21.00
2018-06-17T17:42:25.326Z,20.90
2018-06-17T17:45:01.580Z,20.70
2018-06-17T17:50:15.844Z,20.50
2018-06-17T17:52:44.631Z,20.40
2018-06-17T17:55:13.603Z,20.30
2018-06-17T17:57:43.412Z,20.30
2018-06-17T18:00:13.940Z,20.20
2018-06-17T18:02:43.703Z,20.10
2018-06-17T18:05:13.703Z,20.10
2018-06-17T18:10:13.196Z,19.90
2018-06-17T18:12:42.012Z,19.80
2018-06-17T18:17:39.500Z,19.70
2018-06-17T18:20:08.254Z,19.70
2018-06-17T18:22:38.377Z,19.60
2018-06-17T18:25:12.661Z,19.60
2018-06-17T18:27:48.953Z,19.50
2018-06-17T18:30:23.061Z,19.50
2018-06-17T18:32:57.499Z,19.50
2018-06-17T18:35:31.442Z,19.50
2018-06-17T18:38:01.292Z,19.40
2018-06-17T18:40:30.141Z,19.30
2018-06-17T18:59:57.147Z,18.60
2018-06-17T19:02:25.913Z,18.60
2018-06-17T19:04:54.598Z,18.50
2018-06-17T19:07:23.528Z,18.40
2018-06-17T19:09:57.566Z,18.30
2018-06-17T19:12:31.561Z,18.20
2018-06-17T19:15:05.608Z,18.20
2018-06-17T19:17:46.057Z,18.10
2018-06-17T19:58:41.658Z,17.10
2018-06-17T20:01:16.777Z,17.10
2018-06-17T20:03:54.041Z,17.00
2018-06-17T20:06:23.145Z,16.90
2018-06-17T20:08:54.385Z,16.80
2018-06-17T20:11:23.344Z,16.80
2018-06-17T20:13:52.516Z,16.70
2018-06-17T20:16:22.646Z,16.60
2018-06-17T20:18:52.193Z,16.60
2018-06-17T20:21:22.085Z,16.50
2018-06-17T20:23:52.484Z,16.50
2018-06-17T20:26:21.489Z,16.50
2018-06-17T20:28:51.586Z,16.40
2018-06-17T20:31:21.276Z,16.40
2018-06-17T20:33:55.809Z,16.40
2018-06-17T20:36:29.934Z,16.40
2018-06-17T20:39:05.122Z,16.40
2018-06-17T20:41:44.363Z,16.40
2018-06-17T20:44:13.356Z,16.40
2018-06-17T20:46:43.417Z,16.30
2018-06-17T20:49:12.457Z,16.30
2018-06-17T20:51:42.315Z,16.30
2018-06-17T20:54:12.581Z,16.30
2018-06-17T20:56:41.734Z,16.20
2018-06-17T20:59:10.867Z,16.20
2018-06-17T21:01:40.850Z,16.20
2018-06-17T21:11:45.453Z,16.20
2018-06-17T21:14:14.413Z,16.20
2018-06-17T21:16:44.013Z,16.10
2018-06-17T21:19:20.296Z,16.10
2018-06-17T21:21:54.337Z,16.00
2018-06-17T21:44:07.543Z,15.90
2018-06-17T21:46:39.204Z,15.90
2018-06-17T21:49:10.182Z,15.90
2018-06-17T21:51:43.089Z,15.90
2018-06-17T21:54:11.874Z,15.90
2018-06-17T21:56:43.324Z,15.80
2018-06-17T21:59:12.317Z,15.80
2018-06-17T22:01:40.998Z,15.80
2018-06-17T22:04:15.028Z,15.80
2018-06-17T22:06:43.765Z,15.80
2018-06-17T22:09:17.782Z,15.80
2018-06-17T22:11:51.719Z,15.80
2018-06-17T22:14:25.733Z,15.80
2018-06-17T22:16:59.763Z,15.80
2018-06-17T22:19:28.396Z,15.80
2018-06-17T22:21:58.793Z,15.80
2018-06-17T22:24:27.434Z,15.70
2018-06-17T22:26:56.096Z,15.80
2018-06-17T22:29:24.687Z,15.80
2018-06-17T22:31:53.528Z,15.70
2018-06-17T22:34:22.304Z,15.70
2018-06-17T22:36:51.097Z,15.70
2018-06-17T22:39:19.834Z,15.70
2018-06-17T22:41:49.181Z,15.70
2018-06-17T22:44:17.964Z,15.70
2018-06-17T22:46:46.769Z,15.70
2018-06-17T22:49:15.492Z,15.70
2018-06-17T22:51:44.283Z,15.70
2018-06-17T22:54:24.000Z,15.70
2018-06-17T22:56:58.049Z,15.70
2018-06-17T22:59:32.092Z,15.60
2018-06-17T23:02:06.030Z,15.60
2018-06-17T23:04:39.947Z,15.60
2018-06-17T23:07:13.861Z,15.60
2018-06-17T23:09:44.826Z,15.70
2018-06-17T23:12:17.122Z,15.60
2018-06-17T23:14:45.708Z,15.60
2018-06-17T23:17:14.462Z,15.60
2018-06-17T23:19:43.121Z,15.60
2018-06-17T23:22:11.737Z,15.60
2018-06-17T23:24:40.455Z,15.60
2018-06-17T23:27:09.913Z,15.60
2018-06-17T23:29:38.772Z,15.60
2018-06-17T23:32:07.423Z,15.60
2018-06-17T23:34:37.020Z,15.60
2018-06-17T23:37:05.895Z,15.60
2018-06-17T23:39:34.597Z,15.60
2018-06-17T23:42:03.306Z,15.60
2018-06-17T23:44:32.048Z,15.60
2018-06-17T23:47:05.970Z,15.60
2018-06-17T23:50:43.438Z,15.60
